Time;durP1;ratioP1;P1;durP2;ratioP2;P2;SDS_P1;SDS_P2;PMS_P1;PMS_P2;Temp;Humidity;BMP_temperature;BMP_pressure;BME280_temperature;BME280_humidity;BME280_pressure;Samples;Min_cycle;Max_cycle;Signal;HPM_P1;HPM_P2
2023/05/10 00:02:08;;;;;;;10.13;5.17;;;;;;;10.87;83.01;97466.97;5026640;28;20568;-70
2023/05/10 00:04:35;;;;;;;9.27;5.37;;;;;;;10.98;83.63;97478.63;5026788;28;20277;-71
2023/05/10 00:07:02;;;;;;;8.50;5.33;;;;;;;10.89;83.30;97471.22;5026826;28;20191;-72
2023/05/10 00:09:29;;;;;;;7.40;5.33;;;;;;;10.98;84.17;97475.19;5026511;28;20628;-71
2023/05/10 00:11:58;;;;;;;8.47;5.57;;;;;;;10.95;83.77;97483.91;5027170;28;20549;-72
2023/05/10 00:14:25;;;;;;;8.93;5.33;;;;;;;10.96;83.48;97480.44;5026594;28;20527;-72
2023/05/10 00:16:52;;;;;;;7.13;5.40;;;;;;;10.75;82.94;97465.75;5027034;28;20670;-73
2023/05/10 00:19:19;;;;;;;7.90;5.10;;;;;;;10.71;83.01;97473.69;5026525;28;20194;-71
2023/05/10 00:21:46;;;;;;;7.73;4.97;;;;;;;10.78;82.76;97464.78;5026355;28;21318;-70
2023/05/10 00:24:13;;;;;;;5.87;4.77;;;;;;;10.89;82.47;97473.81;5026516;28;20202;-71
2023/05/10 00:26:42;;;;;;;7.43;4.63;;;;;;;10.59;81.94;97475.03;5026379;28;20187;-73
2023/05/10 00:29:09;;;;;;;8.83;4.73;;;;;;;10.69;82.20;97478.94;5026884;28;20230;-73
2023/05/10 00:31:36;;;;;;;7.23;4.97;;;;;;;10.60;82.38;97479.28;5025047;28;20671;-72
2023/05/10 00:34:03;;;;;;;6.97;5.10;;;;;;;10.40;83.48;97471.44;5026960;28;20184;-71
2023/05/10 00:36:31;;;;;;;7.43;5.13;;;;;;;10.42;84.63;97461.88;5041403;28;20189;-70
2023/05/10 00:38:58;;;;;;;8.60;5.20;;;;;;;10.17;83.04;97441.25;5026608;28;20194;-69
2023/05/10 00:41:25;;;;;;;8.03;4.53;;;;;;;10.42;83.23;97454.97;5025000;28;20248;-71
2023/05/10 00:43:53;;;;;;;6.87;4.30;;;;;;;10.39;82.10;97461.97;5025042;28;20877;-69
2023/05/10 00:46:21;;;;;;;8.43;4.63;;;;;;;10.46;82.07;97455.66;5025661;28;20187;-70
2023/05/10 00:48:48;;;;;;;7.73;4.50;;;;;;;10.26;82.42;97407.25;5025942;28;20187;-70
2023/05/10 00:51:16;;;;;;;7.33;4.80;;;;;;;10.48;83.86;97456.44;5026580;28;20592;-70
2023/05/10 00:53:45;;;;;;;6.90;4.77;;;;;;;10.57;82.96;97463.88;5025123;28;20507;-70
2023/05/10 00:56:13;;;;;;;9.63;4.50;;;;;;;10.25;83.18;97443.53;5026218;28;20408;-69
2023/05/10 00:58:40;;;;;;;5.73;4.50;;;;;;;10.56;82.66;97459.59;5026413;28;20198;-71
2023/05/10 01:01:08;;;;;;;6.93;5.17;;;;;;;10.59;81.83;97454.31;5024837;28;20503;-70
2023/05/10 01:03:36;;;;;;;7.10;4.47;;;;;;;10.49;80.60;97429.63;5026599;28;20689;-69
2023/05/10 01:06:04;;;;;;;8.77;4.50;;;;;;;10.77;80.09;97453.56;5028395;28;20298;-71
2023/05/10 01:08:31;;;;;;;6.63;4.97;;;;;;;10.72;81.09;97458.06;5029074;28;20195;-71
2023/05/10 01:10:58;;;;;;;8.37;4.50;;;;;;;10.75;80.90;97454.53;5029723;28;20195;-70
2023/05/10 01:13:34;;;;;;;9.10;5.30;;;;;;;10.81;81.11;97456.88;5028599;28;20201;-71
2023/05/10 01:16:03;;;;;;;8.60;4.40;;;;;;;10.71;80.31;97448.63;5029891;28;20191;-70
2023/05/10 01:18:37;;;;;;;7.10;4.80;;;;;;;10.77;80.32;97450.97;5029617;28;20180;-71
2023/05/10 01:21:19;;;;;;;9.13;3.93;;;;;;;10.84;79.97;97457.59;5028830;28;20213;-72
2023/05/10 01:24:24;;;;;;;6.03;4.17;;;;;;;10.82;79.89;97449.03;5028209;28;20657;-69
2023/05/10 01:27:18;;;;;;;5.83;4.37;;;;;;;10.68;79.44;97451.34;5029864;28;20248;-71
2023/05/10 01:30:19;;;;;;;10.90;5.00;;;;;;;10.83;80.06;97452.47;5030101;28;20310;-72
2023/05/10 01:33:16;;;;;;;7.83;4.23;;;;;;;10.74;80.00;97447.69;5029733;28;20220;-72
2023/05/10 01:35:50;;;;;;;7.27;4.00;;;;;;;10.73;80.08;97441.66;5029608;28;20191;-71
2023/05/10 01:38:41;;;;;;;6.47;4.33;;;;;;;10.72;79.70;97447.72;5028543;28;20189;-70
2023/05/10 01:41:17;;;;;;;5.60;4.30;;;;;;;10.77;80.65;97440.63;5041271;28;20194;-72
2023/05/10 01:43:50;;;;;;;6.07;4.83;;;;;;;10.70;80.65;97439.16;5049247;28;20684;-71
2023/05/10 01:46:27;;;;;;;6.23;4.50;;;;;;;10.61;80.27;97434.38;5049248;28;20661;-71
2023/05/10 01:48:58;;;;;;;5.87;4.60;;;;;;;10.74;80.27;97435.53;5047531;28;20186;-72
2023/05/10 01:51:31;;;;;;;5.00;4.50;;;;;;;10.77;79.82;97443.22;5049483;28;20240;-72
2023/05/10 01:54:02;;;;;;;6.43;4.17;;;;;;;10.91;79.50;97448.66;5047419;28;20190;-71
2023/05/10 01:56:32;;;;;;;6.33;4.33;;;;;;;10.86;79.05;97450.59;5047716;28;20585;-72
2023/05/10 01:59:03;;;;;;;8.60;4.20;;;;;;;10.85;79.73;97456.69;5047666;28;20665;-72
2023/05/10 02:01:30;;;;;;;7.10;4.13;;;;;;;10.93;78.93;97458.97;5047387;28;20316;-70
2023/05/10 02:03:58;;;;;;;9.43;4.37;;;;;;;10.90;78.97;97459.09;5049093;28;20269;-73
2023/05/10 02:06:27;;;;;;;7.20;4.73;;;;;;;10.82;79.21;97443.84;5048527;28;20665;-71
2023/05/10 02:08:55;;;;;;;6.63;4.60;;;;;;;10.83;78.86;97444.69;5035551;28;20207;-72
2023/05/10 02:11:24;;;;;;;7.13;4.57;;;;;;;10.74;79.24;97438.13;5046469;28;20202;-72
2023/05/10 02:13:55;;;;;;;8.47;4.30;;;;;;;10.74;79.36;97445.09;5048592;28;20647;-71
2023/05/10 02:16:30;;;;;;;8.30;4.80;;;;;;;10.67;79.18;97439.31;5047149;28;20545;-73
2023/05/10 02:19:01;;;;;;;7.27;4.60;;;;;;;10.67;79.61;97441.91;5047209;28;20188;-71
2023/05/10 02:21:30;;;;;;;8.13;4.57;;;;;;;10.65;78.89;97441.94;5047487;28;20791;-72
2023/05/10 02:23:59;;;;;;;6.07;4.50;;;;;;;10.67;78.32;97430.69;5048156;28;20193;-72
2023/05/10 02:26:28;;;;;;;7.63;4.47;;;;;;;10.70;78.53;97439.16;5048634;28;20219;-73
2023/05/10 02:28:58;;;;;;;8.97;4.20;;;;;;;10.66;78.79;97429.81;5048245;28;20828;-73
2023/05/10 02:31:26;;;;;;;7.43;3.90;;;;;;;10.71;78.74;97442.59;5046959;28;20198;-72
2023/05/10 02:33:54;;;;;;;6.33;4.20;;;;;;;10.73;78.45;97435.63;5048609;28;20192;-73
2023/05/10 02:36:22;;;;;;;7.07;4.70;;;;;;;10.69;78.13;97432.31;5048107;28;20673;-72
2023/05/10 02:38:53;;;;;;;6.47;4.07;;;;;;;10.63;78.71;97432.56;5048528;28;20194;-73
2023/05/10 02:41:22;;;;;;;8.53;4.60;;;;;;;10.74;78.01;97435.53;5047646;28;20220;-73
2023/05/10 02:43:57;;;;;;;7.40;4.67;;;;;;;10.72;78.47;97427.00;5048307;28;20674;-72
2023/05/10 02:46:24;;;;;;;7.03;4.77;;;;;;;10.75;79.41;97432.06;5046586;28;20272;-73
2023/05/10 02:48:51;;;;;;;5.80;4.60;;;;;;;10.80;79.48;97431.88;5048086;28;20187;-71
2023/05/10 02:51:22;;;;;;;8.13;4.97;;;;;;;10.73;78.34;97431.28;5048106;28;20206;-72
2023/05/10 02:53:53;;;;;;;11.20;5.23;;;;;;;10.63;78.44;97427.38;5047667;28;20232;-72
2023/05/10 02:56:25;;;;;;;6.93;4.80;;;;;;;10.62;79.23;97428.25;5048198;28;20236;-71
2023/05/10 02:58:52;;;;;;;7.70;5.17;;;;;;;10.71;79.17;97430.50;5047525;28;20284;-70
2023/05/10 03:01:19;;;;;;;6.43;4.87;;;;;;;10.67;79.43;97434.13;5047891;28;20191;-70
2023/05/10 03:03:46;;;;;;;11.77;5.20;;;;;;;10.72;79.50;97437.34;5046403;28;20222;-71
2023/05/10 03:06:14;;;;;;;6.70;4.67;;;;;;;10.79;79.00;97443.13;5047520;28;20196;-71
2023/05/10 03:08:41;;;;;;;5.33;4.10;;;;;;;10.70;78.90;97433.13;5046662;28;20189;-71
2023/05/10 03:11:14;;;;;;;8.73;5.43;;;;;;;10.67;79.33;97438.44;5046158;28;20286;-71
2023/05/10 03:13:53;;;;;;;10.33;5.10;;;;;;;10.69;78.82;97428.88;5046790;28;20194;-71
2023/05/10 03:16:29;;;;;;;7.23;4.90;;;;;;;10.83;78.90;97449.88;5048163;28;20602;-70
2023/05/10 03:18:58;;;;;;;7.37;4.13;;;;;;;10.75;79.13;97444.16;5067605;28;20188;-70
2023/05/10 03:21:29;;;;;;;8.27;4.83;;;;;;;10.78;79.50;97437.09;5066201;28;20185;-70
2023/05/10 03:24:06;;;;;;;6.87;5.27;;;;;;;10.73;79.88;97444.22;5065926;28;20191;-70
2023/05/10 03:26:37;;;;;;;10.03;4.93;;;;;;;10.80;80.00;97444.84;5067865;28;20259;-71
2023/05/10 03:29:14;;;;;;;6.77;4.67;;;;;;;10.77;80.01;97450.13;5064992;28;20233;-71
2023/05/10 03:31:41;;;;;;;7.03;4.73;;;;;;;10.72;80.95;97452.91;5067297;28;20189;-71
2023/05/10 03:34:08;;;;;;;5.83;4.17;;;;;;;10.49;79.33;97424.47;5065949;28;20193;-72
2023/05/10 03:36:35;;;;;;;7.90;5.07;;;;;;;10.65;78.17;97462.66;5065673;28;20185;-71
2023/05/10 03:39:02;;;;;;;7.13;4.77;;;;;;;10.72;78.51;97467.59;5053929;28;20189;-72
2023/05/10 03:41:30;;;;;;;7.63;4.70;;;;;;;10.58;77.20;97421.53;5040075;28;20195;-73
2023/05/10 03:43:57;;;;;;;5.70;4.33;;;;;;;10.72;78.02;97465.84;5034121;28;20222;-71
2023/05/10 03:46:24;;;;;;;8.20;4.97;;;;;;;10.85;78.58;97463.63;5028310;28;20429;-71
2023/05/10 03:48:51;;;;;;;11.80;6.77;;;;;;;10.81;80.79;97464.66;5045774;28;20189;-71
2023/05/10 03:51:18;;;;;;;12.03;7.20;;;;;;;10.68;81.58;97466.03;5046864;28;20630;-71
2023/05/10 03:53:47;;;;;;;12.40;7.73;;;;;;;10.52;81.20;97460.63;5045520;28;20208;-70
2023/05/10 03:56:14;;;;;;;8.73;5.67;;;;;;;10.62;82.03;97462.78;5046694;28;20186;-70
2023/05/10 03:58:42;;;;;;;8.67;5.27;;;;;;;10.59;80.70;97467.25;5043754;28;20190;-71
2023/05/10 04:01:09;;;;;;;11.80;6.30;;;;;;;10.43;81.30;97450.59;5045801;28;20237;-71
2023/05/10 04:03:36;;;;;;;8.73;5.40;;;;;;;10.54;81.31;97453.63;5046238;28;20242;-72
2023/05/10 04:06:05;;;;;;;6.13;4.77;;;;;;;10.60;80.47;97474.09;5045328;28;20229;-73
2023/05/10 04:08:32;;;;;;;10.37;4.10;;;;;;;10.59;79.71;97473.25;5045159;28;20231;-71
2023/05/10 04:11:12;;;;;;;9.30;5.00;;;;;;;10.63;79.07;97479.19;5043628;28;20202;-70
2023/05/10 04:13:39;;;;;;;8.17;5.10;;;;;;;10.81;78.64;97468.09;5045468;28;20196;-71
2023/05/10 04:16:07;;;;;;;8.70;4.90;;;;;;;10.70;77.42;97464.22;5044054;28;20198;-73
2023/05/10 04:18:36;;;;;;;8.03;4.70;;;;;;;10.70;78.00;97475.44;5076497;28;20260;-74
2023/05/10 04:21:04;;;;;;;6.73;4.97;;;;;;;10.76;77.42;97474.38;5048574;28;20666;-71
2023/05/10 04:23:31;;;;;;;7.20;4.73;;;;;;;10.83;76.79;97475.78;5046651;28;20231;-71
2023/05/10 04:26:01;;;;;;;6.77;5.27;;;;;;;10.81;76.82;97457.72;5047770;28;20185;-72
2023/05/10 04:28:28;;;;;;;7.97;4.97;;;;;;;10.94;76.68;97477.03;5046734;28;20225;-72
2023/05/10 04:31:05;;;;;;;12.43;6.20;;;;;;;11.08;76.68;97468.72;5046887;28;20281;-73
2023/05/10 04:33:33;;;;;;;15.23;7.47;;;;;;;11.11;76.33;97461.66;5046339;28;20328;-71
2023/05/10 04:36:01;;;;;;;15.73;6.93;;;;;;;11.26;76.05;97466.22;5046701;28;20784;-71
2023/05/10 04:38:28;;;;;;;13.87;5.60;;;;;;;11.35;75.48;97467.59;5046833;28;20194;-72
2023/05/10 04:41:05;;;;;;;12.03;6.40;;;;;;;11.26;75.01;97468.81;5049215;28;20228;-73
2023/05/10 04:43:32;;;;;;;11.63;5.03;;;;;;;11.32;74.34;97455.59;5049269;28;20243;-73
2023/05/10 04:45:59;;;;;;;10.27;6.03;;;;;;;11.42;73.63;97458.63;5050259;28;20190;-73
2023/05/10 04:48:26;;;;;;;17.03;8.93;;;;;;;11.59;73.03;97468.28;5050805;28;20622;-73
2023/05/10 04:50:54;;;;;;;15.53;6.10;;;;;;;11.49;72.04;97454.88;5050033;28;20178;-73
2023/05/10 04:53:21;;;;;;;16.33;7.07;;;;;;;11.60;72.48;97469.97;5050407;28;20650;-73
2023/05/10 04:55:48;;;;;;;13.10;6.07;;;;;;;11.71;71.99;97453.06;5049880;28;20205;-74
2023/05/10 04:58:15;;;;;;;19.97;5.93;;;;;;;11.66;74.33;97455.03;5049744;28;20205;-72
2023/05/10 05:00:42;;;;;;;16.57;6.30;;;;;;;11.70;74.04;97469.56;5050054;28;20699;-73
2023/05/10 05:03:09;;;;;;;12.57;6.07;;;;;;;11.71;73.59;97478.16;5049923;28;20228;-72
2023/05/10 05:05:37;;;;;;;15.17;6.60;;;;;;;11.80;73.37;97469.97;5048779;28;20209;-72
2023/05/10 05:08:04;;;;;;;12.17;6.43;;;;;;;11.94;73.07;97455.50;5053839;28;21075;-74
2023/05/10 05:10:31;;;;;;;11.67;5.07;;;;;;;11.89;74.60;97462.63;5054327;28;20187;-71
2023/05/10 05:12:58;;;;;;;11.27;5.40;;;;;;;11.90;73.88;97464.31;5050187;28;20192;-71
2023/05/10 05:15:27;;;;;;;11.23;5.87;;;;;;;11.96;73.67;97483.97;5051809;28;20221;-71
2023/05/10 05:17:54;;;;;;;6.43;5.13;;;;;;;12.03;72.25;97486.25;5043398;28;20264;-71
2023/05/10 05:20:21;;;;;;;7.73;4.87;;;;;;;12.24;71.70;97484.44;5045327;28;20208;-73
2023/05/10 05:22:48;;;;;;;9.63;4.57;;;;;;;12.42;70.26;97487.94;5048781;28;20308;-72
2023/05/10 05:25:18;;;;;;;12.47;5.83;;;;;;;12.87;69.95;97478.00;5048035;28;20278;-71
2023/05/10 05:27:46;;;;;;;12.17;5.00;;;;;;;13.03;67.79;97479.78;5048599;28;20208;-71
2023/05/10 05:30:13;;;;;;;7.23;5.20;;;;;;;13.18;67.00;97480.00;5049466;28;20201;-71
2023/05/10 05:32:40;;;;;;;8.83;5.90;;;;;;;13.18;66.79;97488.63;5049564;28;20187;-72
2023/05/10 05:35:07;;;;;;;13.60;5.03;;;;;;;13.14;66.75;97487.09;5049313;28;20198;-71
2023/05/10 05:37:35;;;;;;;8.43;4.63;;;;;;;12.88;64.91;97477.91;5049379;28;20244;-72
2023/05/10 05:40:04;;;;;;;11.80;5.10;;;;;;;12.70;66.82;97489.19;5048068;28;20197;-70
2023/05/10 05:42:33;;;;;;;13.83;6.47;;;;;;;12.70;67.32;97491.78;5049006;28;20226;-72
2023/05/10 05:45:00;;;;;;;15.23;7.33;;;;;;;12.63;67.98;97492.97;5032006;28;20258;-72
2023/05/10 05:47:33;;;;;;;9.50;5.57;;;;;;;12.63;68.76;97485.19;5047813;28;20203;-72
2023/05/10 05:50:01;;;;;;;21.33;6.53;;;;;;;12.77;67.53;97488.00;5049306;28;20187;-71
2023/05/10 05:52:30;;;;;;;12.03;6.20;;;;;;;12.61;67.06;97492.19;5048667;28;20248;-72
2023/05/10 05:55:00;;;;;;;13.20;5.90;;;;;;;12.75;67.34;97497.63;5048476;28;20204;-70
2023/05/10 05:57:27;;;;;;;15.67;5.73;;;;;;;12.94;65.87;97501.00;5054716;28;20627;-71
2023/05/10 05:59:54;;;;;;;9.53;5.63;;;;;;;12.81;64.70;97488.69;5052235;28;20183;-72
2023/05/10 06:02:22;;;;;;;17.93;7.37;;;;;;;12.75;66.19;97513.22;5049222;28;20990;-72
2023/05/10 06:04:50;;;;;;;11.73;6.63;;;;;;;12.65;66.07;97495.53;5049037;28;20623;-71
2023/05/10 06:07:17;;;;;;;12.60;6.20;;;;;;;12.66;64.83;97502.38;5047260;28;20252;-72
2023/05/10 06:09:46;;;;;;;10.27;6.03;;;;;;;12.67;64.62;97504.94;5047262;28;20271;-72
2023/05/10 06:12:13;;;;;;;6.73;5.30;;;;;;;12.59;65.03;97509.63;5047747;28;20291;-72
2023/05/10 06:14:41;;;;;;;12.17;5.63;;;;;;;12.51;66.13;97510.91;5047568;28;20187;-71
2023/05/10 06:17:08;;;;;;;6.57;5.77;;;;;;;12.39;65.28;97503.66;5048673;28;20195;-71
2023/05/10 06:19:35;;;;;;;14.40;6.57;;;;;;;12.48;65.45;97514.50;5047760;28;20199;-72
2023/05/10 06:22:03;;;;;;;9.83;6.40;;;;;;;12.19;65.61;97505.41;5046832;28;20187;-73
2023/05/10 06:24:30;;;;;;;14.27;9.27;;;;;;;12.33;65.25;97514.31;5048107;28;20232;-73
2023/05/10 06:26:59;;;;;;;19.03;9.60;;;;;;;12.25;65.32;97528.50;5048301;28;20187;-71
2023/05/10 06:29:28;;;;;;;12.43;7.57;;;;;;;12.36;64.84;97514.19;5046600;28;20611;-72
2023/05/10 06:31:55;;;;;;;13.03;8.80;;;;;;;12.43;64.52;97518.19;5047083;28;20180;-73
2023/05/10 06:34:22;;;;;;;31.73;14.90;;;;;;;12.79;63.67;97522.56;5046558;28;20501;-71
2023/05/10 06:36:49;;;;;;;12.10;6.83;;;;;;;12.74;62.99;97511.53;5048674;28;20260;-72
2023/05/10 06:39:16;;;;;;;14.17;6.37;;;;;;;12.79;63.03;97499.16;5048368;28;20197;-71
2023/05/10 06:41:44;;;;;;;7.20;4.77;;;;;;;12.96;62.14;97514.78;5049244;28;20197;-72
2023/05/10 06:44:11;;;;;;;9.43;5.60;;;;;;;13.14;62.64;97515.72;5050757;28;20256;-72
2023/05/10 06:46:38;;;;;;;11.37;6.40;;;;;;;13.02;62.00;97521.47;5048657;28;20191;-73
2023/05/10 06:49:05;;;;;;;6.27;4.70;;;;;;;12.70;61.61;97517.78;5048549;28;20185;-72
2023/05/10 06:51:32;;;;;;;10.43;6.57;;;;;;;12.43;62.36;97524.22;5048210;28;20185;-72
2023/05/10 06:54:00;;;;;;;11.00;6.23;;;;;;;12.57;63.05;97521.84;5047352;28;20190;-72
2023/05/10 06:56:31;;;;;;;5.73;4.20;;;;;;;12.75;62.94;97508.03;5048749;28;20241;-75
2023/05/10 06:58:59;;;;;;;14.17;6.30;;;;;;;12.79;62.37;97519.97;5048315;28;20191;-72
2023/05/10 07:01:26;;;;;;;5.63;4.30;;;;;;;13.15;62.01;97521.75;5048415;28;20203;-73
2023/05/10 07:03:53;;;;;;;18.23;6.13;;;;;;;13.28;61.92;97522.84;5047062;28;20220;-72
2023/05/10 07:06:20;;;;;;;10.57;5.67;;;;;;;13.48;61.70;97520.94;5046875;28;20196;-72
2023/05/10 07:09:02;;;;;;;7.77;4.97;;;;;;;13.18;61.49;97499.03;5046377;28;20196;-73
2023/05/10 07:11:33;;;;;;;5.77;4.50;;;;;;;13.69;61.39;97513.81;5046677;28;20198;-71
2023/05/10 07:14:02;;;;;;;8.77;4.70;;;;;;;13.68;60.53;97515.56;5047701;28;20196;-69
2023/05/10 07:16:34;;;;;;;12.90;4.50;;;;;;;13.89;59.06;97498.88;5047092;28;20679;-72
2023/05/10 07:19:02;;;;;;;7.60;3.40;;;;;;;13.97;57.86;97521.94;5046270;28;20275;-73
2023/05/10 07:21:46;;;;;;;5.37;4.60;;;;;;;13.86;58.69;97491.22;5047472;28;20198;-72
2023/05/10 07:24:37;;;;;;;7.10;4.20;;;;;;;13.93;59.04;97528.19;5029202;28;20228;-73
2023/05/10 07:27:30;;;;;;;6.07;4.47;;;;;;;13.95;59.18;97505.50;5047636;28;20707;-73
2023/05/10 07:29:58;;;;;;;7.37;4.40;;;;;;;13.88;58.36;97530.19;5033259;28;20258;-73
2023/05/10 07:32:26;;;;;;;6.63;4.13;;;;;;;13.72;59.47;97524.09;5051847;28;20220;-72
2023/05/10 07:34:54;;;;;;;5.73;3.93;;;;;;;13.74;59.76;97527.47;5046962;28;20593;-73
2023/05/10 07:37:23;;;;;;;5.87;4.07;;;;;;;13.90;58.18;97530.97;5046383;28;20196;-73
2023/05/10 07:39:50;;;;;;;4.17;2.93;;;;;;;13.72;56.09;97524.09;5047289;28;20195;-73
2023/05/10 07:42:22;;;;;;;5.80;3.90;;;;;;;13.52;57.41;97519.00;5045755;28;20370;-72
2023/05/10 07:44:49;;;;;;;6.07;4.40;;;;;;;13.61;57.70;97529.81;5046091;28;20217;-73
2023/05/10 07:47:16;;;;;;;5.00;3.30;;;;;;;13.11;58.90;97538.44;5046625;28;20282;-74
2023/05/10 07:49:43;;;;;;;3.40;2.87;;;;;;;13.01;58.49;97531.03;5045971;28;20272;-72
2023/05/10 07:52:13;;;;;;;5.37;3.67;;;;;;;13.04;58.68;97530.88;5045125;28;20566;-73
2023/05/10 07:54:42;;;;;;;6.40;3.70;;;;;;;13.28;59.22;97533.22;5045870;28;20295;-72
2023/05/10 07:57:10;;;;;;;4.90;3.97;;;;;;;12.85;60.22;97526.63;5046733;28;20246;-73
2023/05/10 07:59:37;;;;;;;5.97;4.00;;;;;;;12.98;60.32;97525.94;5046510;28;20506;-71
2023/05/10 08:02:05;;;;;;;6.80;3.80;;;;;;;13.35;59.64;97532.03;5046436;28;20219;-72
2023/05/10 08:04:33;;;;;;;6.93;4.90;;;;;;;13.56;59.76;97539.59;5044492;28;20230;-73
2023/05/10 08:07:01;;;;;;;10.07;3.70;;;;;;;13.59;59.05;97533.41;5029067;28;20195;-73
2023/05/10 08:09:28;;;;;;;9.70;5.50;;;;;;;13.33;59.11;97533.88;5046384;28;20610;-74
2023/05/10 08:11:59;;;;;;;8.77;5.20;;;;;;;12.90;59.62;97530.66;5046860;28;20213;-73
2023/05/10 08:14:31;;;;;;;4.93;4.27;;;;;;;13.44;58.75;97540.22;5045029;28;20227;-73
2023/05/10 08:16:59;;;;;;;8.20;3.80;;;;;;;13.36;59.46;97541.50;5047970;28;20193;-71
2023/05/10 08:19:27;;;;;;;7.57;4.73;;;;;;;13.43;58.83;97498.69;5049314;28;20265;-74
2023/05/10 08:21:55;;;;;;;7.80;4.37;;;;;;;14.09;58.28;97531.72;5029029;28;20611;-71
2023/05/10 08:24:23;;;;;;;7.63;3.93;;;;;;;14.28;57.65;97523.78;5046711;28;20312;-72
2023/05/10 08:26:49;;;;;;;6.50;3.77;;;;;;;14.57;55.80;97536.09;5046525;28;20197;-74
2023/05/10 08:29:16;;;;;;;5.57;3.93;;;;;;;14.75;56.01;97516.03;5046500;28;20842;-73
2023/05/10 08:31:44;;;;;;;7.20;4.93;;;;;;;14.78;56.03;97540.16;5044691;28;20268;-74
2023/05/10 08:34:11;;;;;;;5.83;4.57;;;;;;;14.13;56.79;97534.97;5045863;28;20202;-74
2023/05/10 08:36:39;;;;;;;6.17;4.33;;;;;;;13.54;57.85;97525.84;5044411;28;20228;-72
2023/05/10 08:39:07;;;;;;;7.40;4.43;;;;;;;13.84;57.93;97541.69;5044497;28;20202;-73
2023/05/10 08:41:52;;;;;;;3.50;2.93;;;;;;;13.76;57.58;97529.06;5046766;28;20202;-72
2023/05/10 08:44:20;;;;;;;3.33;3.03;;;;;;;13.84;56.50;97534.72;5044593;28;20228;-74
2023/05/10 08:46:54;;;;;;;9.30;4.20;;;;;;;14.26;57.94;97533.44;5032445;28;20265;-73
2023/05/10 08:49:25;;;;;;;7.83;4.57;;;;;;;14.53;56.58;97527.63;5035245;28;20693;-72
2023/05/10 08:51:54;;;;;;;6.37;4.07;;;;;;;14.52;56.38;97528.56;5045705;28;20710;-71
2023/05/10 08:54:24;;;;;;;5.53;3.27;;;;;;;14.61;55.37;97511.59;5047078;28;20644;-72
2023/05/10 08:56:53;;;;;;;4.97;3.10;;;;;;;14.66;55.60;97518.22;5055059;28;20192;-71
2023/05/10 08:59:22;;;;;;;4.50;2.97;;;;;;;14.99;55.88;97509.47;5059373;28;20242;-71
2023/05/10 09:01:51;;;;;;;5.43;3.40;;;;;;;14.94;53.92;97530.56;5051537;28;20230;-72
2023/05/10 09:04:19;;;;;;;6.13;3.40;;;;;;;15.06;52.61;97529.06;5046484;28;20221;-72
2023/05/10 09:06:46;;;;;;;4.33;3.10;;;;;;;14.62;54.64;97527.13;5046581;28;20189;-70
2023/05/10 09:09:14;;;;;;;5.13;3.23;;;;;;;14.51;55.42;97521.66;5047212;28;20194;-71
2023/05/10 09:11:42;;;;;;;5.77;3.40;;;;;;;14.82;55.68;97531.25;5046853;28;20268;-72
2023/05/10 09:14:09;;;;;;;5.57;3.60;;;;;;;14.94;55.90;97514.09;5046437;28;20233;-72
2023/05/10 09:16:38;;;;;;;5.00;3.30;;;;;;;14.93;55.72;97504.59;5046276;28;20220;-72
2023/05/10 09:19:08;;;;;;;4.47;3.17;;;;;;;14.81;54.96;97515.69;5018573;28;20195;-73
2023/05/10 09:21:39;;;;;;;3.97;3.20;;;;;;;14.74;54.93;97522.16;5039507;28;20651;-71
2023/05/10 09:24:08;;;;;;;5.17;3.50;;;;;;;14.55;56.08;97506.66;5026533;28;20742;-72
2023/05/10 09:26:48;;;;;;;4.63;3.63;;;;;;;14.93;55.41;97517.63;5043461;28;20285;-72
2023/05/10 09:29:15;;;;;;;3.73;3.30;;;;;;;14.75;55.60;97516.88;5045268;28;20257;-72
2023/05/10 09:31:46;;;;;;;5.10;3.40;;;;;;;14.94;55.08;97527.16;5030089;28;20694;-72
2023/05/10 09:34:29;;;;;;;7.47;4.10;;;;;;;14.78;54.60;97518.47;5030210;28;20194;-71
2023/05/10 09:37:00;;;;;;;7.07;4.07;;;;;;;14.54;56.03;97505.00;5030211;28;20233;-71
2023/05/10 09:39:35;;;;;;;6.97;3.37;;;;;;;14.51;55.27;97516.44;5029411;28;20200;-72
2023/05/10 09:42:10;;;;;;;9.60;3.40;;;;;;;14.23;55.98;97504.91;5029824;28;20638;-71
2023/05/10 09:44:38;;;;;;;4.37;3.13;;;;;;;14.49;55.27;97515.66;5040780;28;20669;-72
2023/05/10 09:47:07;;;;;;;5.40;3.53;;;;;;;14.17;57.71;97513.06;5048288;28;20217;-73
2023/05/10 09:49:34;;;;;;;3.13;2.80;;;;;;;14.01;56.96;97520.00;5048976;28;20203;-72
2023/05/10 09:52:03;;;;;;;8.43;3.77;;;;;;;14.16;58.21;97499.19;5050920;28;20280;-71
2023/05/10 09:54:31;;;;;;;6.30;4.03;;;;;;;14.63;57.54;97499.31;5050972;28;20643;-72
2023/05/10 09:56:59;;;;;;;7.00;3.60;;;;;;;14.60;56.94;97492.50;5049565;28;20197;-71
2023/05/10 09:59:28;;;;;;;7.57;4.90;;;;;;;14.78;56.63;97495.00;5049302;28;20260;-71
2023/05/10 10:01:59;;;;;;;3.90;3.47;;;;;;;14.78;56.49;97492.38;5047055;28;20193;-71
2023/05/10 10:04:28;;;;;;;6.07;3.70;;;;;;;14.87;55.85;97491.88;5049182;28;20225;-70
2023/05/10 10:07:04;;;;;;;6.23;3.20;;;;;;;15.13;55.37;97496.47;5048684;28;20248;-71
2023/05/10 10:09:33;;;;;;;5.00;3.60;;;;;;;15.19;54.76;97504.81;5031557;28;20193;-72
2023/05/10 10:12:02;;;;;;;4.90;3.33;;;;;;;14.96;55.65;97497.41;5048228;28;20279;-71
2023/05/10 10:14:29;;;;;;;3.87;2.40;;;;;;;15.10;54.91;97499.28;5043355;28;20230;-71
2023/05/10 10:17:00;;;;;;;3.90;3.10;;;;;;;14.98;54.42;97484.31;5028857;28;20209;-72
2023/05/10 10:19:33;;;;;;;4.90;3.30;;;;;;;15.17;54.67;97471.88;5015145;28;20289;-71
2023/05/10 10:22:01;;;;;;;5.37;2.97;;;;;;;15.53;54.54;97480.25;5043167;28;20195;-71
2023/05/10 10:24:29;;;;;;;8.93;3.40;;;;;;;15.48;55.09;97483.13;5027410;28;20225;-71
2023/05/10 10:27:04;;;;;;;5.00;3.30;;;;;;;15.52;55.33;97490.81;5026936;28;20191;-72
2023/05/10 10:29:41;;;;;;;3.97;2.80;;;;;;;15.55;52.83;97483.63;5028658;28;20286;-72
2023/05/10 10:32:25;;;;;;;4.63;2.40;;;;;;;15.78;52.50;97482.28;5028191;28;20183;-74
2023/05/10 10:34:54;;;;;;;5.30;3.33;;;;;;;15.78;53.35;97479.66;5028607;28;20191;-73
2023/05/10 10:37:40;;;;;;;3.53;2.97;;;;;;;15.68;53.79;97463.72;5027914;28;20196;-72
2023/05/10 10:40:31;;;;;;;4.83;2.93;;;;;;;15.36;54.24;97472.53;5029731;28;20593;-72
2023/05/10 10:43:24;;;;;;;3.77;2.77;;;;;;;15.51;54.46;97489.09;5039016;28;20209;-71
2023/05/10 10:46:14;;;;;;;8.93;4.07;;;;;;;15.78;54.32;97490.94;5046707;28;20669;-73
2023/05/10 10:48:48;;;;;;;4.00;3.13;;;;;;;15.67;55.14;97490.72;5046851;28;20186;-73
2023/05/10 10:51:15;;;;;;;4.07;3.13;;;;;;;15.17;56.54;97485.78;5046708;28;20267;-72
2023/05/10 10:53:43;;;;;;;3.33;2.80;;;;;;;15.48;55.45;97484.06;5047466;28;20193;-73
2023/05/10 10:56:15;;;;;;;3.80;2.63;;;;;;;15.77;54.97;97501.47;5048003;28;20190;-73
2023/05/10 10:58:53;;;;;;;2.60;2.40;;;;;;;15.34;54.68;97492.66;5046349;28;20526;-73
2023/05/10 11:01:22;;;;;;;3.50;3.20;;;;;;;15.50;54.64;97496.09;5047781;28;20190;-72
2023/05/10 11:04:06;;;;;;;4.67;3.10;;;;;;;15.48;54.57;97498.78;5046222;28;20199;-79
2023/05/10 11:06:35;;;;;;;3.23;2.77;;;;;;;15.45;55.79;97496.38;5045847;28;20190;-72
2023/05/10 11:09:08;;;;;;;4.10;2.90;;;;;;;15.50;54.69;97488.25;5047558;28;20281;-71
2023/05/10 11:11:36;;;;;;;3.00;2.70;;;;;;;15.48;54.49;97493.56;5045826;28;20218;-71
2023/05/10 11:14:05;;;;;;;4.57;3.00;;;;;;;14.78;55.92;97492.38;5045877;28;20190;-71
2023/05/10 11:16:42;;;;;;;6.57;3.50;;;;;;;14.86;55.90;97475.38;5047385;28;20198;-73
2023/05/10 11:19:12;;;;;;;5.53;3.40;;;;;;;14.98;56.44;97484.31;5045989;28;20201;-71
2023/05/10 11:21:47;;;;;;;6.90;3.83;;;;;;;15.21;56.57;97483.84;5048133;28;20876;-72
2023/05/10 11:24:19;;;;;;;6.00;3.37;;;;;;;15.39;55.94;97481.00;5025887;28;20229;-72
2023/05/10 11:26:50;;;;;;;4.63;2.90;;;;;;;15.78;55.57;97480.50;5028391;28;20559;-70
2023/05/10 11:29:19;;;;;;;3.43;2.90;;;;;;;16.04;54.47;97482.38;5028906;28;20722;-70
2023/05/10 11:31:48;;;;;;;4.63;2.77;;;;;;;15.97;53.87;97482.88;5028561;28;20218;-72
2023/05/10 11:34:23;;;;;;;3.00;2.70;;;;;;;16.09;52.67;97482.13;5027534;28;20285;-71
2023/05/10 11:36:54;;;;;;;8.33;3.40;;;;;;;15.91;53.40;97473.59;5026981;28;20577;-71
2023/05/10 11:39:30;;;;;;;5.27;3.57;;;;;;;15.89;53.57;97478.06;5027903;28;20278;-73
2023/05/10 11:42:01;;;;;;;4.03;2.60;;;;;;;15.93;53.66;97474.34;5058385;28;20289;-71
2023/05/10 11:44:32;;;;;;;6.00;2.77;;;;;;;15.85;53.23;97476.59;5025387;28;20276;-72
2023/05/10 11:47:04;;;;;;;4.97;3.03;;;;;;;15.91;52.97;97465.75;5025892;28;20195;-72